Terminal Aerodrome Forecast
Issued by NWS Cleveland, OH

Home | Current Version | Previous Version | Graphics & Text | Print | Product List | Glossary On
Versions: 1 2 3 4 5 6 7 8 9 10 11 12 13 14 15 16 17 18 19 20 21 22 23 24 25 26 27 28 29
000
FTUS41 KCLE 100324 AAC
TAFCLE
TAF AMD
KCLE 100324Z 1003/1106 29012KT 6SM -SHSN SCT008 OVC015
      TEMPO 1006/1009 2SM -SHSN OVC008
     FM100900 29012G20KT P6SM VCSH SCT015 OVC025
     FM101600 24012G22KT P6SM OVC025=

USA.gov is the U.S. government's official web portal to all federal, state and local government web resources and services.